Time;durP1;ratioP1;P1;durP2;ratioP2;P2;SDS_P1;SDS_P2;PMS_P1;PMS_P2;Temp;Humidity;BMP_temperature;BMP_pressure;BME280_temperature;BME280_humidity;BME280_pressure;Samples;Min_cycle;Max_cycle;Signal;HPM_P1;HPM_P2
2022/04/29 00:00:06;;;;;;;;;;;9.20;99.90;;;;;;2603881;54;19934;31
2022/04/29 00:02:45;;;;;;;;;;;9.10;99.90;;;;;;2603790;54;19935;31
2022/04/29 00:05:19;;;;;;;;;;;9.10;99.90;;;;;;2603639;54;20836;31
2022/04/29 00:07:58;;;;;;;;;;;9.20;99.90;;;;;;2621973;46;20704;31
2022/04/29 00:10:32;;;;;;;;;;;9.20;99.90;;;;;;2603807;54;19934;31
2022/04/29 00:13:12;;;;;;;;;;;9.20;99.90;;;;;;2603619;54;19942;31
2022/04/29 00:15:47;;;;;;;;;;;9.20;99.90;;;;;;2622254;46;20771;31
2022/04/29 00:18:22;;;;;;;;;;;9.20;99.90;;;;;;2603722;54;20007;31
2022/04/29 00:20:57;;;;;;;;;;;9.20;99.90;;;;;;2602839;54;19997;31
2022/04/29 00:23:31;;;;;;;;;;;9.20;99.90;;;;;;2603550;54;20065;31
2022/04/29 00:26:08;;;;;;;;;;;9.20;99.90;;;;;;2603420;54;19958;31
2022/04/29 00:28:46;;;;;;;;;;;9.20;99.90;;;;;;2622084;46;19942;31
2022/04/29 00:31:19;;;;;;;;;;;9.20;99.90;;;;;;2613054;46;20012;31
2022/04/29 00:33:54;;;;;;;;;;;9.10;99.90;;;;;;2621313;46;19990;31
2022/04/29 00:36:30;;;;;;;;;;;9.10;99.90;;;;;;2602945;54;20032;31
2022/04/29 00:39:05;;;;;;;;;;;9.10;99.90;;;;;;2621955;46;19934;31
2022/04/29 00:41:46;;;;;;;;;;;9.10;99.90;;;;;;2603646;54;19962;31
2022/04/29 00:44:23;;;;;;;;;;;9.10;99.90;;;;;;2621826;47;20712;31
2022/04/29 00:46:57;;;;;;;;;;;9.00;99.90;;;;;;2603648;54;19934;31
2022/04/29 00:49:33;;;;;;;;;;;9.00;99.90;;;;;;2603567;54;19934;31
2022/04/29 00:52:08;;;;;;;;;;;8.90;99.90;;;;;;2603618;54;19934;31
2022/04/29 00:54:48;;;;;;;;;;;8.90;99.90;;;;;;2622101;47;20769;31
2022/04/29 00:57:25;;;;;;;;;;;8.80;99.90;;;;;;2622323;47;20743;31
2022/04/29 01:00:05;;;;;;;;;;;8.80;99.90;;;;;;2622251;47;20784;31
2022/04/29 01:02:43;;;;;;;;;;;8.80;99.90;;;;;;2622978;46;20796;31
2022/04/29 01:05:20;;;;;;;;;;;8.80;99.90;;;;;;2622871;46;19935;31
2022/04/29 01:07:55;;;;;;;;;;;8.80;99.90;;;;;;2604070;54;19935;31
2022/04/29 01:10:29;;;;;;;;;;;8.70;99.90;;;;;;2622910;46;20014;31
2022/04/29 01:13:04;;;;;;;;;;;9.20;99.90;;;;;;2604543;54;20717;31
2022/04/29 01:15:41;;;;;;;;;;;8.70;99.90;;;;;;2604251;54;20742;31
2022/04/29 01:18:17;;;;;;;;;;;8.70;99.90;;;;;;2604252;54;19935;31
2022/04/29 01:20:52;;;;;;;;;;;8.60;99.90;;;;;;2604465;54;19954;31
2022/04/29 01:23:31;;;;;;;;;;;8.60;99.90;;;;;;2622663;46;19938;31
2022/04/29 01:26:09;;;;;;;;;;;8.60;99.90;;;;;;2604226;54;19957;31
2022/04/29 01:28:45;;;;;;;;;;;8.60;99.90;;;;;;2603964;54;19946;31
2022/04/29 01:31:22;;;;;;;;;;;9.20;99.90;;;;;;2604122;54;19941;31
2022/04/29 01:33:57;;;;;;;;;;;8.50;99.90;;;;;;2622176;46;19937;31
2022/04/29 01:36:32;;;;;;;;;;;8.40;99.90;;;;;;2604160;54;20017;31
2022/04/29 01:39:09;;;;;;;;;;;8.40;99.90;;;;;;2603570;54;20739;31
2022/04/29 01:41:46;;;;;;;;;;;8.40;99.90;;;;;;2604188;54;19935;31
2022/04/29 01:44:19;;;;;;;;;;;8.40;99.90;;;;;;2606697;46;19989;31
2022/04/29 01:46:54;;;;;;;;;;;8.30;99.90;;;;;;2622570;46;19935;31
2022/04/29 01:49:56;;;;;;;;;;;8.30;99.90;;;;;;2604149;54;19939;31
2022/04/29 01:52:32;;;;;;;;;;;8.30;99.90;;;;;;2604007;54;19997;31
2022/04/29 01:55:12;;;;;;;;;;;8.30;99.90;;;;;;2603994;54;20658;31
2022/04/29 01:57:47;;;;;;;;;;;8.30;99.90;;;;;;2622774;46;19954;31
2022/04/29 02:00:23;;;;;;;;;;;8.40;99.90;;;;;;2604274;54;19985;31
2022/04/29 02:02:56;;;;;;;;;;;8.20;99.90;;;;;;2604100;54;19935;31
2022/04/29 02:05:31;;;;;;;;;;;8.20;99.90;;;;;;2603844;54;19935;31
2022/04/29 02:08:09;;;;;;;;;;;8.20;99.90;;;;;;2622573;46;20025;31
2022/04/29 02:10:51;;;;;;;;;;;8.20;99.90;;;;;;2702701;39;20922;31
2022/04/29 02:13:31;;;;;;;;;;;8.20;99.90;;;;;;2603889;54;20696;31
2022/04/29 02:16:30;;;;;;;;;;;8.20;99.90;;;;;;2603895;54;19935;31
2022/04/29 02:19:06;;;;;;;;;;;8.20;99.90;;;;;;2603978;54;20009;31
2022/04/29 02:21:44;;;;;;;;;;;8.20;99.90;;;;;;2622840;46;19935;31
2022/04/29 02:24:19;;;;;;;;;;;8.20;99.90;;;;;;2603268;54;19962;31
2022/04/29 02:26:55;;;;;;;;;;;8.20;99.90;;;;;;2604055;54;19934;31
2022/04/29 02:29:30;;;;;;;;;;;8.20;99.90;;;;;;2603966;54;19974;31
2022/04/29 02:32:06;;;;;;;;;;;8.20;99.90;;;;;;2622464;46;19951;31
2022/04/29 02:34:42;;;;;;;;;;;8.20;99.90;;;;;;2622151;46;20817;31
2022/04/29 02:37:18;;;;;;;;;;;8.20;99.90;;;;;;2603109;54;19941;31
2022/04/29 02:39:56;;;;;;;;;;;8.40;99.90;;;;;;2604079;54;19954;31
2022/04/29 02:42:34;;;;;;;;;;;8.10;99.90;;;;;;2604017;54;19986;31
2022/04/29 02:45:10;;;;;;;;;;;8.20;99.90;;;;;;2603914;54;19966;31
2022/04/29 02:47:48;;;;;;;;;;;8.20;99.90;;;;;;2622331;46;20742;31
2022/04/29 02:50:25;;;;;;;;;;;8.20;99.90;;;;;;2603915;54;20847;31
2022/04/29 02:53:11;;;;;;;;;;;8.20;99.90;;;;;;2603884;54;19941;31
2022/04/29 02:55:46;;;;;;;;;;;8.20;99.90;;;;;;2603968;54;19981;31
2022/04/29 02:58:50;;;;;;;;;;;8.10;99.90;;;;;;2622619;46;19935;31
2022/04/29 03:01:25;;;;;;;;;;;8.10;99.90;;;;;;2622292;46;19941;31
2022/04/29 03:04:01;;;;;;;;;;;8.10;99.90;;;;;;2603946;54;19935;31
2022/04/29 03:06:38;;;;;;;;;;;8.10;99.90;;;;;;2603910;54;19989;31
2022/04/29 03:09:12;;;;;;;;;;;8.10;99.90;;;;;;2622313;46;20037;31
2022/04/29 03:11:48;;;;;;;;;;;8.00;99.90;;;;;;2603821;54;19935;31
2022/04/29 03:14:28;;;;;;;;;;;8.40;99.90;;;;;;2622262;46;19935;31
2022/04/29 03:17:02;;;;;;;;;;;8.00;99.90;;;;;;2603735;54;20690;31
2022/04/29 03:19:38;;;;;;;;;;;8.00;99.90;;;;;;2603043;54;20654;31
2022/04/29 03:22:13;;;;;;;;;;;7.90;99.90;;;;;;2603037;54;19949;31
2022/04/29 03:24:49;;;;;;;;;;;7.20;99.90;;;;;;2603703;54;20041;31
2022/04/29 03:27:25;;;;;;;;;;;7.90;99.90;;;;;;2603696;54;19934;31
2022/04/29 03:30:01;;;;;;;;;;;7.90;99.90;;;;;;2603824;54;20671;31
2022/04/29 03:32:39;;;;;;;;;;;7.90;99.90;;;;;;2603520;54;20659;31
2022/04/29 03:35:16;;;;;;;;;;;7.90;99.90;;;;;;2622162;46;19934;31
2022/04/29 03:37:53;;;;;;;;;;;7.80;99.90;;;;;;2603795;54;19958;31
2022/04/29 03:40:28;;;;;;;;;;;8.10;99.90;;;;;;2773725;31;20548;31
2022/04/29 03:43:06;;;;;;;;;;;7.80;99.90;;;;;;2602647;54;20728;31
2022/04/29 03:45:45;;;;;;;;;;;7.80;99.90;;;;;;2603889;54;19962;31
2022/04/29 03:48:27;;;;;;;;;;;7.80;99.90;;;;;;2603599;54;20729;31
2022/04/29 03:51:13;;;;;;;;;;;7.80;99.90;;;;;;2603885;54;19935;31
2022/04/29 03:53:48;;;;;;;;;;;7.80;99.90;;;;;;2603781;54;19957;31
2022/04/29 03:56:23;;;;;;;;;;;7.80;99.90;;;;;;2602866;54;20690;31
2022/04/29 03:59:05;;;;;;;;;;;7.70;99.90;;;;;;2603714;54;20556;31
2022/04/29 04:01:43;;;;;;;;;;;7.80;99.90;;;;;;2603535;54;19985;31
2022/04/29 04:04:21;;;;;;;;;;;7.80;99.90;;;;;;2603648;54;20770;31
2022/04/29 04:07:01;;;;;;;;;;;7.80;99.90;;;;;;2622150;46;19942;31
2022/04/29 04:09:49;;;;;;;;;;;7.80;99.90;;;;;;2622180;46;19934;31
2022/04/29 04:12:24;;;;;;;;;;;7.80;99.90;;;;;;2603493;54;19942;31
2022/04/29 04:15:38;;;;;;;;;;;7.80;99.90;;;;;;2603587;54;19935;31
2022/04/29 04:18:16;;;;;;;;;;;8.40;99.90;;;;;;2603648;54;19935;31
2022/04/29 04:20:52;;;;;;;;;;;7.90;99.90;;;;;;2603756;54;19935;31
2022/04/29 04:23:28;;;;;;;;;;;7.90;99.90;;;;;;2603755;54;19941;31
2022/04/29 04:26:08;;;;;;;;;;;7.90;99.90;;;;;;2603589;54;20821;31
2022/04/29 04:28:49;;;;;;;;;;;8.00;99.90;;;;;;2603784;54;20759;31
2022/04/29 04:31:26;;;;;;;;;;;8.00;99.90;;;;;;2603630;54;19961;31
2022/04/29 04:34:49;;;;;;;;;;;8.10;99.90;;;;;;2603396;54;19942;31
2022/04/29 04:36:57;;;;;;;;;;;8.10;99.90;;;;;;2603675;54;20678;31
2022/04/29 04:39:32;;;;;;;;;;;8.20;99.90;;;;;;2603583;54;19941;31
2022/04/29 04:42:12;;;;;;;;;;;8.20;99.90;;;;;;2603455;54;19957;31
2022/04/29 04:44:55;;;;;;;;;;;8.40;99.90;;;;;;2621968;46;19943;31
2022/04/29 04:47:35;;;;;;;;;;;8.60;99.90;;;;;;2603491;54;19935;31
2022/04/29 04:50:35;;;;;;;;;;;8.80;99.90;;;;;;2603375;54;19935;31
2022/04/29 04:53:11;;;;;;;;;;;9.10;99.90;;;;;;2621929;47;19989;31
2022/04/29 04:55:45;;;;;;;;;;;9.30;99.90;;;;;;2603351;54;20762;31
2022/04/29 04:58:22;;;;;;;;;;;9.40;99.90;;;;;;2621974;47;20820;31
2022/04/29 05:00:56;;;;;;;;;;;9.40;99.90;;;;;;2603350;54;20792;31
2022/04/29 05:03:50;;;;;;;;;;;9.50;99.90;;;;;;2603391;54;19943;31
2022/04/29 05:06:50;;;;;;;;;;;9.70;99.90;;;;;;2603477;54;19942;31
2022/04/29 05:09:27;;;;;;;;;;;9.60;99.90;;;;;;2603267;54;19942;31
2022/04/29 05:12:05;;;;;;;;;;;9.70;99.90;;;;;;2603459;54;19935;31
2022/04/29 05:15:05;;;;;;;;;;;9.90;99.90;;;;;;2603076;54;19934;31
2022/04/29 05:17:42;;;;;;;;;;;10.20;99.90;;;;;;2603352;54;19954;31
2022/04/29 05:20:35;;;;;;;;;;;10.60;99.90;;;;;;2603600;54;20001;31
2022/04/29 05:23:20;;;;;;;;;;;11.20;99.90;;;;;;2603354;54;20005;31
2022/04/29 05:26:16;;;;;;;;;;;11.50;99.90;;;;;;2603200;54;20810;31
2022/04/29 05:29:10;;;;;;;;;;;12.00;99.90;;;;;;2603415;54;19943;31
2022/04/29 05:32:15;;;;;;;;;;;12.40;99.90;;;;;;2603474;54;20046;31
2022/04/29 05:35:11;;;;;;;;;;;12.50;99.90;;;;;;2603392;54;20779;31
2022/04/29 05:37:56;;;;;;;;;;;12.50;99.90;;;;;;2603566;54;20017;31
2022/04/29 05:43:25;;;;;;;;;;;12.30;99.90;;;;;;2603239;54;19946;31
2022/04/29 05:45:59;;;;;;;;;;;12.30;99.90;;;;;;2603687;54;19934;31
2022/04/29 05:48:37;;;;;;;;;;;12.50;99.90;;;;;;2603987;54;19935;31
2022/04/29 05:51:13;;;;;;;;;;;12.50;99.90;;;;;;2604201;54;20018;31
2022/04/29 05:53:48;;;;;;;;;;;12.70;99.90;;;;;;2603322;54;20777;31
2022/04/29 05:56:23;;;;;;;;;;;12.90;99.90;;;;;;2604268;54;19935;31
2022/04/29 05:59:02;;;;;;;;;;;13.20;99.90;;;;;;2604098;54;19935;31
2022/04/29 06:01:57;;;;;;;;;;;13.50;99.90;;;;;;2603980;54;19957;31
2022/04/29 06:04:42;;;;;;;;;;;13.70;99.90;;;;;;2604250;54;19941;31
2022/04/29 06:09:54;;;;;;;;;;;14.40;99.90;;;;;;2603847;54;19950;31
2022/04/29 06:12:28;;;;;;;;;;;14.40;99.90;;;;;;2604207;54;19939;31
2022/04/29 06:15:16;;;;;;;;;;;14.60;99.90;;;;;;2603874;54;19934;31
2022/04/29 06:18:10;;;;;;;;;;;15.00;99.90;;;;;;2604224;54;19934;31
2022/04/29 06:20:45;;;;;;;;;;;15.30;99.90;;;;;;2603484;54;19946;31
2022/04/29 06:23:40;;;;;;;;;;;15.50;99.90;;;;;;2603676;54;20749;31
2022/04/29 06:26:19;;;;;;;;;;;15.90;99.90;;;;;;2604105;54;19942;31
2022/04/29 06:28:56;;;;;;;;;;;16.20;99.90;;;;;;2604041;54;20810;31
2022/04/29 06:31:34;;;;;;;;;;;16.60;99.90;;;;;;2614404;46;19943;31
2022/04/29 06:34:35;;;;;;;;;;;16.80;99.90;;;;;;2604054;54;19942;31
2022/04/29 06:37:10;;;;;;;;;;;17.20;99.90;;;;;;2622470;46;20450;31
2022/04/29 06:39:48;;;;;;;;;;;17.40;99.90;;;;;;2603999;54;21687;31
2022/04/29 06:42:45;;;;;;;;;;;17.60;99.90;;;;;;2603923;54;20823;31
2022/04/29 06:45:58;;;;;;;;;;;17.70;99.90;;;;;;2603893;54;20012;31
2022/04/29 06:48:56;;;;;;;;;;;18.10;99.90;;;;;;2604069;54;19950;31
2022/04/29 06:51:50;;;;;;;;;;;18.20;99.90;;;;;;2603982;54;19935;31
2022/04/29 06:54:32;;;;;;;;;;;18.40;99.90;;;;;;2603978;54;19935;31
2022/04/29 06:57:14;;;;;;;;;;;18.70;99.30;;;;;;2603522;54;19935;31
2022/04/29 06:59:51;;;;;;;;;;;19.00;97.30;;;;;;2622489;46;19934;31
2022/04/29 07:02:26;;;;;;;;;;;19.30;97.10;;;;;;2604129;54;19935;31
2022/04/29 07:05:05;;;;;;;;;;;19.50;94.40;;;;;;2603812;54;20823;31
2022/04/29 07:07:49;;;;;;;;;;;19.70;94.60;;;;;;2610911;46;20497;31
2022/04/29 07:10:43;;;;;;;;;;;19.80;94.60;;;;;;2603718;54;19934;31
2022/04/29 07:13:42;;;;;;;;;;;20.10;93.60;;;;;;2603723;54;20876;31
2022/04/29 07:16:16;;;;;;;;;;;20.30;91.70;;;;;;2604063;54;20025;31
2022/04/29 07:19:07;;;;;;;;;;;20.40;91.90;;;;;;2604090;54;20485;31
2022/04/29 07:21:44;;;;;;;;;;;20.50;91.20;;;;;;2622267;46;19942;31
2022/04/29 07:24:22;;;;;;;;;;;20.60;90.20;;;;;;2603778;54;20013;31
2022/04/29 07:27:00;;;;;;;;;;;20.70;90.30;;;;;;2603832;54;19941;31
2022/04/29 07:29:37;;;;;;;;;;;20.80;90.30;;;;;;2603657;54;20780;31
2022/04/29 07:32:33;;;;;;;;;;;21.10;90.00;;;;;;2622304;46;19997;31
2022/04/29 07:44:17;;;;;;;;;;;21.80;82.40;;;;;;2622208;46;19941;31
2022/04/29 07:46:54;;;;;;;;;;;22.00;82.00;;;;;;2617243;46;19934;31
2022/04/29 07:49:46;;;;;;;;;;;21.80;80.30;;;;;;2603617;54;20690;31
2022/04/29 07:52:27;;;;;;;;;;;21.90;82.50;;;;;;2603617;54;19997;31
2022/04/29 07:55:16;;;;;;;;;;;22.00;81.90;;;;;;2603665;54;20722;31
2022/04/29 07:57:59;;;;;;;;;;;22.10;80.90;;;;;;2603547;54;19935;31
2022/04/29 08:03:09;;;;;;;;;;;22.40;81.10;;;;;;2603668;54;19987;31
2022/04/29 08:05:59;;;;;;;;;;;22.40;80.00;;;;;;2603555;54;19934;31
2022/04/29 08:08:37;;;;;;;;;;;22.60;78.20;;;;;;2603797;54;20729;31
2022/04/29 08:11:17;;;;;;;;;;;22.60;76.30;;;;;;2621912;46;19935;31
2022/04/29 08:14:14;;;;;;;;;;;22.60;77.00;;;;;;2702534;39;20958;31
2022/04/29 08:17:32;;;;;;;;;;;22.70;79.30;;;;;;2603697;54;19942;31
2022/04/29 08:20:10;;;;;;;;;;;22.80;75.80;;;;;;2603796;54;19939;31
2022/04/29 08:22:53;;;;;;;;;;;22.90;75.60;;;;;;2702447;39;22108;31
2022/04/29 08:25:30;;;;;;;;;;;23.00;74.60;;;;;;2603910;54;19934;31
2022/04/29 08:30:44;;;;;;;;;;;23.20;75.30;;;;;;2603467;54;19960;31
2022/04/29 08:33:28;;;;;;;;;;;23.20;75.20;;;;;;2603496;54;20672;31
2022/04/29 08:36:21;;;;;;;;;;;23.20;74.60;;;;;;2702348;39;20351;31
2022/04/29 08:38:55;;;;;;;;;;;23.30;75.50;;;;;;2603718;54;20719;31
2022/04/29 08:41:32;;;;;;;;;;;23.40;73.80;;;;;;2603547;54;19946;31
2022/04/29 08:44:10;;;;;;;;;;;23.30;71.90;;;;;;2622010;46;19941;31
2022/04/29 08:46:56;;;;;;;;;;;23.30;74.60;;;;;;2622196;46;20021;31
2022/04/29 08:52:34;;;;;;;;;;;23.40;74.30;;;;;;2621604;47;20717;31
2022/04/29 09:00:54;;;;;;;;;;;23.00;73.20;;;;;;2603452;54;20828;31
2022/04/29 09:03:31;;;;;;;;;;;23.10;73.60;;;;;;2603623;54;20016;31
2022/04/29 09:06:09;;;;;;;;;;;23.10;75.20;;;;;;2603431;54;19950;31
2022/04/29 09:08:43;;;;;;;;;;;23.10;73.80;;;;;;2602912;54;19946;31
2022/04/29 09:11:23;;;;;;;;;;;23.00;73.50;;;;;;2602566;54;20749;31
2022/04/29 09:13:57;;;;;;;;;;;23.00;72.90;;;;;;2603194;54;19957;31
2022/04/29 09:16:40;;;;;;;;;;;23.10;73.90;;;;;;2603622;54;20451;31
2022/04/29 09:19:34;;;;;;;;;;;23.10;76.20;;;;;;2603436;54;19943;31
2022/04/29 09:22:12;;;;;;;;;;;23.10;74.10;;;;;;2618163;46;19997;31
2022/04/29 09:25:04;;;;;;;;;;;23.00;73.60;;;;;;2622550;46;19994;31
2022/04/29 09:28:01;;;;;;;;;;;23.20;72.30;;;;;;2604069;54;19942;31
2022/04/29 09:30:59;;;;;;;;;;;23.00;74.30;;;;;;2604103;54;20800;31
2022/04/29 09:34:00;;;;;;;;;;;23.10;71.90;;;;;;2604395;54;20782;31
2022/04/29 09:36:45;;;;;;;;;;;23.20;74.80;;;;;;2604149;54;19941;31
2022/04/29 09:39:27;;;;;;;;;;;23.20;73.50;;;;;;2721181;39;21224;31
2022/04/29 09:42:08;;;;;;;;;;;23.20;73.60;;;;;;2603997;54;19985;31
2022/04/29 09:44:42;;;;;;;;;;;23.30;74.40;;;;;;2622832;46;19935;31
2022/04/29 09:47:19;;;;;;;;;;;23.40;73.70;;;;;;2622806;46;19993;31
2022/04/29 09:49:58;;;;;;;;;;;23.40;71.70;;;;;;2622769;46;20765;31
2022/04/29 09:52:34;;;;;;;;;;;23.40;72.00;;;;;;2603319;54;19951;31
2022/04/29 09:55:14;;;;;;;;;;;23.40;70.30;;;;;;2614742;46;19942;31
2022/04/29 09:57:59;;;;;;;;;;;23.30;73.30;;;;;;2612085;46;20833;31
2022/04/29 10:00:34;;;;;;;;;;;23.00;72.40;;;;;;2603233;54;20061;31
2022/04/29 10:03:11;;;;;;;;;;;22.50;72.50;;;;;;2618850;46;19954;31
2022/04/29 10:05:46;;;;;;;;;;;22.20;72.10;;;;;;2622528;46;19935;31
2022/04/29 10:08:20;;;;;;;;;;;22.10;71.40;;;;;;2604089;54;19934;31
2022/04/29 10:11:07;;;;;;;;;;;21.90;72.10;;;;;;2622845;46;20801;31
2022/04/29 10:13:46;;;;;;;;;;;21.80;74.30;;;;;;2604087;54;19943;31
2022/04/29 10:16:36;;;;;;;;;;;21.70;76.00;;;;;;2622515;46;19942;31
2022/04/29 10:22:38;;;;;;;;;;;22.00;75.00;;;;;;2603746;54;20462;31
2022/04/29 10:25:13;;;;;;;;;;;22.20;75.30;;;;;;2622469;46;19985;31
2022/04/29 10:30:27;;;;;;;;;;;22.30;74.50;;;;;;2603934;54;20018;31
2022/04/29 10:33:04;;;;;;;;;;;22.50;73.10;;;;;;2721030;39;20373;31
2022/04/29 10:35:42;;;;;;;;;;;22.80;73.60;;;;;;2604302;54;20492;31
2022/04/29 10:38:19;;;;;;;;;;;22.70;72.10;;;;;;2702453;39;21202;31
2022/04/29 10:41:09;;;;;;;;;;;22.30;72.10;;;;;;2604137;54;19935;31
2022/04/29 10:43:47;;;;;;;;;;;21.90;72.70;;;;;;2702270;39;21204;31
2022/04/29 10:46:24;;;;;;;;;;;21.70;74.60;;;;;;2702798;39;20991;31
2022/04/29 10:49:11;;;;;;;;;;;21.90;74.10;;;;;;2603904;54;20568;31
2022/04/29 10:52:08;;;;;;;;;;;21.80;70.80;;;;;;2603897;54;20764;31
2022/04/29 10:55:06;;;;;;;;;;;21.60;72.40;;;;;;2603824;54;19942;31
2022/04/29 10:57:44;;;;;;;;;;;21.20;73.70;;;;;;2604013;54;20785;31
2022/04/29 11:00:28;;;;;;;;;;;21.00;75.50;;;;;;2603872;54;19938;31
2022/04/29 11:03:21;;;;;;;;;;;21.10;73.90;;;;;;2622682;46;20018;31
2022/04/29 11:05:58;;;;;;;;;;;21.10;76.30;;;;;;2622358;46;20458;31
2022/04/29 11:08:45;;;;;;;;;;;21.00;76.60;;;;;;2622434;46;19934;31
2022/04/29 11:11:22;;;;;;;;;;;21.00;73.60;;;;;;2603712;54;21454;31
2022/04/29 11:14:27;;;;;;;;;;;21.10;74.40;;;;;;2604082;54;19997;31
2022/04/29 11:17:38;;;;;;;;;;;21.30;76.50;;;;;;2603718;54;20815;31
2022/04/29 11:20:12;;;;;;;;;;;21.40;74.10;;;;;;2603948;54;19935;31
2022/04/29 11:25:53;;;;;;;;;;;21.40;73.80;;;;;;2622477;46;20746;31
2022/04/29 11:28:58;;;;;;;;;;;21.30;75.60;;;;;;2603675;54;19935;31
2022/04/29 11:31:54;;;;;;;;;;;21.10;74.40;;;;;;2603967;54;20442;31
2022/04/29 11:34:29;;;;;;;;;;;21.20;75.10;;;;;;2621976;46;19941;31
2022/04/29 11:37:11;;;;;;;;;;;21.20;75.00;;;;;;2603876;54;20013;31
2022/04/29 11:39:55;;;;;;;;;;;21.20;74.70;;;;;;2602852;54;19958;31
2022/04/29 11:42:31;;;;;;;;;;;21.10;74.80;;;;;;2603645;54;20728;31
2022/04/29 11:45:23;;;;;;;;;;;21.00;75.40;;;;;;2622215;46;19935;31
2022/04/29 11:48:17;;;;;;;;;;;21.00;72.70;;;;;;2603855;54;19942;31
2022/04/29 11:50:54;;;;;;;;;;;21.00;72.70;;;;;;2603495;54;19934;31
2022/04/29 11:53:33;;;;;;;;;;;21.00;71.60;;;;;;2622355;46;19939;31
2022/04/29 11:56:12;;;;;;;;;;;21.10;71.30;;;;;;2604063;54;20770;31
2022/04/29 11:58:52;;;;;;;;;;;21.10;73.90;;;;;;2622458;46;19942;31
2022/04/29 12:01:32;;;;;;;;;;;21.10;72.30;;;;;;2622042;46;19947;31
2022/04/29 12:16:04;;;;;;;;;;;21.20;72.70;;;;;;2607782;46;20709;31
2022/04/29 12:21:51;;;;;;;;;;;21.20;73.30;;;;;;2603692;54;19942;31
2022/04/29 12:24:43;;;;;;;;;;;21.20;71.50;;;;;;2603743;54;20063;31
2022/04/29 12:27:30;;;;;;;;;;;21.10;73.00;;;;;;2622130;46;20781;31
2022/04/29 12:36:23;;;;;;;;;;;21.10;73.20;;;;;;2603400;54;19942;31
2022/04/29 12:39:55;;;;;;;;;;;21.00;72.00;;;;;;2603445;54;20735;31
2022/04/29 12:42:37;;;;;;;;;;;20.80;71.30;;;;;;2622041;46;19934;31
2022/04/29 12:45:24;;;;;;;;;;;20.70;71.70;;;;;;2603481;54;19997;31
2022/04/29 12:48:04;;;;;;;;;;;20.70;74.60;;;;;;2603466;54;19993;31
2022/04/29 12:50:44;;;;;;;;;;;20.80;70.90;;;;;;2603372;54;20825;31
2022/04/29 12:56:01;;;;;;;;;;;20.80;73.10;;;;;;2603851;54;19946;31
2022/04/29 12:58:43;;;;;;;;;;;20.70;72.70;;;;;;2603522;54;20679;31
2022/04/29 13:01:21;;;;;;;;;;;20.70;72.40;;;;;;2703022;39;20381;31
2022/04/29 13:04:03;;;;;;;;;;;20.70;70.10;;;;;;2622641;46;19935;31
2022/04/29 13:06:59;;;;;;;;;;;20.60;71.20;;;;;;2604112;54;19938;31
2022/04/29 13:09:33;;;;;;;;;;;20.60;74.20;;;;;;2604342;54;20684;31
2022/04/29 13:12:15;;;;;;;;;;;20.60;74.60;;;;;;2604385;54;19941;31
2022/04/29 13:15:23;;;;;;;;;;;20.50;72.90;;;;;;2604080;54;19962;31
2022/04/29 13:18:03;;;;;;;;;;;20.40;71.70;;;;;;2702930;39;20393;31
2022/04/29 13:20:46;;;;;;;;;;;20.40;71.40;;;;;;2622357;46;19960;31
2022/04/29 13:23:31;;;;;;;;;;;20.30;71.30;;;;;;2604241;54;19939;31
2022/04/29 13:32:14;;;;;;;;;;;20.20;72.80;;;;;;2774571;31;21065;31
2022/04/29 13:35:18;;;;;;;;;;;20.10;70.80;;;;;;2604069;54;19965;31
2022/04/29 13:37:58;;;;;;;;;;;19.90;72.30;;;;;;2622450;46;19943;31
2022/04/29 13:40:37;;;;;;;;;;;19.80;73.40;;;;;;2622434;46;20843;31
2022/04/29 13:43:17;;;;;;;;;;;19.80;72.70;;;;;;2622590;46;19938;31
2022/04/29 13:46:16;;;;;;;;;;;19.70;73.80;;;;;;2604355;54;19939;31
2022/04/29 13:48:54;;;;;;;;;;;19.60;71.20;;;;;;2604303;54;19942;31
2022/04/29 13:51:37;;;;;;;;;;;19.50;71.70;;;;;;2603798;54;19958;31
2022/04/29 13:54:16;;;;;;;;;;;19.30;71.70;;;;;;2603992;54;19934;31
2022/04/29 13:56:56;;;;;;;;;;;19.30;69.40;;;;;;2604276;54;19946;31
2022/04/29 14:02:14;;;;;;;;;;;19.10;69.90;;;;;;2604191;54;19949;31
2022/04/29 14:04:51;;;;;;;;;;;19.00;70.00;;;;;;2603455;54;19977;31
2022/04/29 14:07:32;;;;;;;;;;;19.00;70.10;;;;;;2603762;54;19985;31
2022/04/29 14:10:14;;;;;;;;;;;18.90;69.70;;;;;;2604136;54;19942;31
2022/04/29 14:12:58;;;;;;;;;;;18.80;69.70;;;;;;2603985;54;19942;31
2022/04/29 14:15:37;;;;;;;;;;;18.70;70.00;;;;;;2603778;54;19935;31
2022/04/29 14:18:24;;;;;;;;;;;18.60;69.70;;;;;;2604058;54;19942;31
2022/04/29 14:21:33;;;;;;;;;;;;;;;;;;;;;
2022/04/29 14:24:31;;;;;;;;;;;18.50;69.60;;;;;;2622433;46;19935;31
2022/04/29 14:27:07;;;;;;;;;;;18.50;70.10;;;;;;2609701;46;21385;31
2022/04/29 14:32:35;;;;;;;;;;;18.60;71.20;;;;;;2603716;54;19941;31
2022/04/29 14:35:24;;;;;;;;;;;18.60;70.50;;;;;;2603868;54;19954;31
2022/04/29 14:38:08;;;;;;;;;;;18.60;70.80;;;;;;2604086;54;19935;31
2022/04/29 14:40:45;;;;;;;;;;;18.60;72.30;;;;;;2603982;54;19946;31
2022/04/29 14:43:25;;;;;;;;;;;18.60;70.30;;;;;;2701798;39;21225;31
2022/04/29 14:46:02;;;;;;;;;;;18.60;69.50;;;;;;2701655;39;21248;31
2022/04/29 14:48:43;;;;;;;;;;;18.60;70.10;;;;;;2622132;46;19934;31
2022/04/29 14:51:19;;;;;;;;;;;18.60;69.60;;;;;;2622502;46;19958;31
2022/04/29 14:53:57;;;;;;;;;;;18.60;71.10;;;;;;2603944;54;19935;31
2022/04/29 14:56:45;;;;;;;;;;;18.60;68.10;;;;;;2621738;46;19941;31
2022/04/29 14:59:24;;;;;;;;;;;18.60;68.50;;;;;;2603863;54;19935;31
2022/04/29 15:02:01;;;;;;;;;;;18.50;70.00;;;;;;2603785;54;19942;31
2022/04/29 15:04:44;;;;;;;;;;;18.40;69.10;;;;;;2603857;54;20872;31
2022/04/29 15:07:21;;;;;;;;;;;18.50;70.10;;;;;;2603915;54;19935;31
2022/04/29 15:18:39;;;;;;;;;;;18.40;70.20;;;;;;2602831;54;19935;31
2022/04/29 15:21:15;;;;;;;;;;;18.30;71.20;;;;;;2603712;54;20602;31
2022/04/29 15:23:51;;;;;;;;;;;18.30;70.60;;;;;;2603844;54;19938;31
2022/04/29 15:26:27;;;;;;;;;;;18.20;71.30;;;;;;2603609;54;20540;31
2022/04/29 15:29:02;;;;;;;;;;;18.20;75.40;;;;;;2603666;54;19934;31
2022/04/29 15:31:41;;;;;;;;;;;18.30;77.40;;;;;;2603823;54;19930;31
2022/04/29 15:34:19;;;;;;;;;;;18.30;74.40;;;;;;2602910;54;20663;31
2022/04/29 15:36:56;;;;;;;;;;;18.30;72.60;;;;;;2612533;46;19941;31
2022/04/29 15:39:34;;;;;;;;;;;18.30;71.90;;;;;;2621000;46;20685;31
2022/04/29 15:42:10;;;;;;;;;;;18.20;72.90;;;;;;2602875;54;19949;31
2022/04/29 15:44:50;;;;;;;;;;;18.30;73.80;;;;;;2622353;46;20737;31
2022/04/29 15:47:26;;;;;;;;;;;18.30;72.30;;;;;;2622139;46;19934;31
2022/04/29 15:50:05;;;;;;;;;;;18.20;75.50;;;;;;2603504;54;20540;31
2022/04/29 15:52:51;;;;;;;;;;;18.30;75.40;;;;;;2622304;46;20516;31
2022/04/29 15:55:25;;;;;;;;;;;18.40;72.50;;;;;;2603664;54;19942;31
2022/04/29 15:58:00;;;;;;;;;;;18.30;74.10;;;;;;2603634;54;19934;31
2022/04/29 16:00:36;;;;;;;;;;;18.30;73.80;;;;;;2603755;54;19938;31
2022/04/29 16:03:11;;;;;;;;;;;18.10;73.30;;;;;;2617544;46;19958;31
2022/04/29 16:05:51;;;;;;;;;;;18.10;73.60;;;;;;2622397;46;19949;31
2022/04/29 16:08:31;;;;;;;;;;;18.00;73.60;;;;;;2618036;46;19946;31
2022/04/29 16:11:06;;;;;;;;;;;18.00;72.60;;;;;;2603622;54;19935;31
2022/04/29 16:13:42;;;;;;;;;;;17.90;73.00;;;;;;2622246;46;19942;31
2022/04/29 16:16:19;;;;;;;;;;;17.90;73.50;;;;;;2622533;46;20754;31
2022/04/29 16:21:46;;;;;;;;;;;17.80;72.90;;;;;;2622312;46;19989;31
2022/04/29 16:27:09;;;;;;;;;;;17.70;73.50;;;;;;2603623;54;20841;31
2022/04/29 16:29:49;;;;;;;;;;;17.60;72.50;;;;;;2603566;54;19950;31
2022/04/29 16:32:24;;;;;;;;;;;17.60;73.00;;;;;;2622389;46;19973;31
2022/04/29 16:34:59;;;;;;;;;;;17.50;74.30;;;;;;2603651;54;19985;31
2022/04/29 16:37:34;;;;;;;;;;;17.50;72.40;;;;;;2603585;54;19969;31
2022/04/29 16:40:13;;;;;;;;;;;17.50;71.90;;;;;;2603437;54;19987;31
2022/04/29 16:42:53;;;;;;;;;;;17.50;72.00;;;;;;2622058;46;20838;31
2022/04/29 16:45:31;;;;;;;;;;;17.40;72.40;;;;;;2603458;54;19962;31
2022/04/29 16:48:10;;;;;;;;;;;17.40;73.30;;;;;;2622230;46;19946;31
2022/04/29 16:50:45;;;;;;;;;;;17.40;72.90;;;;;;2622017;47;19985;31
2022/04/29 16:53:24;;;;;;;;;;;17.40;73.50;;;;;;2603460;54;19941;31
2022/04/29 16:56:02;;;;;;;;;;;17.30;72.60;;;;;;2603164;54;20770;31
2022/04/29 16:58:45;;;;;;;;;;;17.30;72.50;;;;;;2603480;54;19935;31
2022/04/29 17:01:20;;;;;;;;;;;17.20;73.30;;;;;;2622161;47;19935;31
2022/04/29 17:03:59;;;;;;;;;;;17.10;73.30;;;;;;2603442;54;19935;31
2022/04/29 17:06:36;;;;;;;;;;;17.00;74.30;;;;;;2622160;47;19942;31
2022/04/29 17:09:11;;;;;;;;;;;17.00;73.00;;;;;;2603392;54;19946;31
2022/04/29 17:11:51;;;;;;;;;;;16.90;73.30;;;;;;2622126;47;19997;31
2022/04/29 17:14:25;;;;;;;;;;;16.90;72.10;;;;;;2603774;54;19934;31
2022/04/29 17:16:59;;;;;;;;;;;16.80;72.20;;;;;;2603482;54;20521;31
2022/04/29 17:19:37;;;;;;;;;;;16.80;72.00;;;;;;2603577;54;20048;31
2022/04/29 17:22:12;;;;;;;;;;;16.80;72.20;;;;;;2621897;47;19935;31
2022/04/29 17:24:48;;;;;;;;;;;16.70;73.70;;;;;;2621901;47;20822;31